createdAt,value
2022-08-31T00:01:52.019Z,99.90
2022-08-31T00:04:19.074Z,99.90
2022-08-31T00:06:45.913Z,99.90
2022-08-31T00:09:18.404Z,99.90
2022-08-31T00:11:45.268Z,99.90
2022-08-31T00:14:13.308Z,99.90
2022-08-31T00:16:43.685Z,99.90
2022-08-31T00:19:11.502Z,99.90
2022-08-31T00:21:39.233Z,99.90
2022-08-31T00:24:06.597Z,99.90
2022-08-31T00:26:33.443Z,99.90
2022-08-31T00:29:00.257Z,99.90
2022-08-31T00:31:27.312Z,99.90
2022-08-31T00:33:55.417Z,99.90
2022-08-31T00:36:24.528Z,99.90
2022-08-31T00:38:52.219Z,99.90
2022-08-31T00:41:24.189Z,99.90
2022-08-31T00:43:57.594Z,99.90
2022-08-31T00:46:31.022Z,99.90
2022-08-31T00:49:12.065Z,99.90
2022-08-31T00:51:50.392Z,99.90
2022-08-31T00:54:20.135Z,99.90
2022-08-31T00:56:47.297Z,99.90
2022-08-31T00:59:16.587Z,99.90
2022-08-31T01:01:43.780Z,99.90
2022-08-31T01:04:11.129Z,99.90
2022-08-31T01:06:39.744Z,99.90
2022-08-31T01:09:08.793Z,99.90
2022-08-31T01:11:39.069Z,99.90
2022-08-31T01:14:08.166Z,99.90
2022-08-31T01:16:47.372Z,99.90
2022-08-31T01:19:39.092Z,99.90
2022-08-31T01:22:27.259Z,99.90
2022-08-31T01:24:56.080Z,99.90
2022-08-31T01:27:27.022Z,99.90
2022-08-31T01:29:53.919Z,99.90
2022-08-31T01:32:20.826Z,99.90
2022-08-31T01:34:47.619Z,99.90
2022-08-31T01:37:14.669Z,99.90
2022-08-31T01:39:42.422Z,99.90
2022-08-31T01:42:09.287Z,99.90
2022-08-31T01:44:36.162Z,99.90
2022-08-31T01:47:03.222Z,99.90
2022-08-31T01:49:30.155Z,99.90
2022-08-31T01:51:56.949Z,99.90
2022-08-31T01:54:25.164Z,99.90
2022-08-31T01:56:52.432Z,99.90
2022-08-31T01:59:21.528Z,99.90
2022-08-31T02:01:51.948Z,99.90
2022-08-31T02:04:21.119Z,99.90
2022-08-31T02:06:51.138Z,99.90
2022-08-31T02:09:18.443Z,99.90
2022-08-31T02:11:45.682Z,99.90
2022-08-31T02:14:13.137Z,99.90
2022-08-31T02:16:40.672Z,99.90
2022-08-31T02:19:08.077Z,99.90
2022-08-31T02:21:36.909Z,99.90
2022-08-31T02:24:05.087Z,99.90
2022-08-31T02:26:32.086Z,99.90
2022-08-31T02:28:58.956Z,99.90
2022-08-31T02:31:25.778Z,99.90
2022-08-31T02:33:52.662Z,99.90
2022-08-31T02:36:19.452Z,99.90
2022-08-31T02:38:46.796Z,99.90
2022-08-31T02:41:13.687Z,99.90
2022-08-31T02:43:40.521Z,99.90
2022-08-31T02:46:07.619Z,99.90
2022-08-31T02:48:35.257Z,99.90
2022-08-31T02:51:08.108Z,99.90
2022-08-31T02:53:35.969Z,99.90
2022-08-31T02:56:03.521Z,99.90
2022-08-31T02:58:30.505Z,99.90
2022-08-31T03:00:57.320Z,99.90
2022-08-31T03:03:24.152Z,99.90
2022-08-31T03:05:51.595Z,99.90
2022-08-31T03:08:18.499Z,99.90
2022-08-31T03:10:45.447Z,99.90
2022-08-31T03:13:12.390Z,99.90
2022-08-31T03:15:39.354Z,99.90
2022-08-31T03:18:06.802Z,99.90
2022-08-31T03:20:34.604Z,99.90
2022-08-31T03:23:03.563Z,99.90
2022-08-31T03:25:31.480Z,99.90
2022-08-31T03:27:58.613Z,99.90
2022-08-31T03:30:27.520Z,99.90
2022-08-31T03:33:02.379Z,99.90
2022-08-31T03:35:31.861Z,99.90
2022-08-31T03:37:59.003Z,99.90
2022-08-31T03:40:25.889Z,99.90
2022-08-31T03:42:52.788Z,99.90
2022-08-31T03:45:20.183Z,99.90
2022-08-31T03:47:47.117Z,99.90
2022-08-31T03:50:15.791Z,99.90
2022-08-31T03:52:43.278Z,99.90
2022-08-31T03:55:11.244Z,99.90
2022-08-31T03:57:38.209Z,99.90
2022-08-31T04:00:06.829Z,99.90
2022-08-31T04:02:37.690Z,99.90
2022-08-31T04:05:05.117Z,99.90
2022-08-31T04:07:42.192Z,99.90
2022-08-31T04:10:12.013Z,99.90
2022-08-31T04:12:39.058Z,99.90
2022-08-31T04:15:07.076Z,99.90
2022-08-31T04:17:34.202Z,99.90
2022-08-31T04:20:00.992Z,99.90
2022-08-31T04:22:27.853Z,99.90
2022-08-31T04:24:54.747Z,99.90
2022-08-31T04:27:21.573Z,99.90
2022-08-31T04:29:48.809Z,99.90
2022-08-31T04:32:15.615Z,99.90
2022-08-31T04:34:42.391Z,99.90
2022-08-31T04:37:10.347Z,99.90
2022-08-31T04:39:50.903Z,99.90
2022-08-31T04:42:18.021Z,99.90
2022-08-31T04:44:44.843Z,99.90
2022-08-31T04:47:11.679Z,99.90
2022-08-31T04:49:38.797Z,99.90
2022-08-31T04:52:06.706Z,99.90
2022-08-31T04:54:33.596Z,99.90
2022-08-31T04:57:00.512Z,99.90
2022-08-31T04:59:27.554Z,99.90
2022-08-31T05:01:55.587Z,99.90
2022-08-31T05:04:24.633Z,99.90
2022-08-31T05:06:51.609Z,99.90
2022-08-31T05:09:22.481Z,99.90
2022-08-31T05:11:51.187Z,99.90
2022-08-31T05:14:18.261Z,99.90
2022-08-31T05:16:45.873Z,99.90
2022-08-31T05:19:13.145Z,99.90
2022-08-31T05:21:42.045Z,99.90
2022-08-31T05:24:13.146Z,99.90
2022-08-31T05:26:58.415Z,99.90
2022-08-31T05:29:26.496Z,99.90
2022-08-31T05:31:53.436Z,99.90
2022-08-31T05:34:21.937Z,99.90
2022-08-31T05:36:54.286Z,99.90
2022-08-31T05:39:21.535Z,99.90
2022-08-31T05:41:49.149Z,99.90
2022-08-31T05:44:17.168Z,99.90
2022-08-31T05:46:44.276Z,99.90
2022-08-31T05:49:11.833Z,99.90
2022-08-31T05:51:40.395Z,99.90
2022-08-31T05:54:10.686Z,99.90
2022-08-31T05:56:40.526Z,99.90
2022-08-31T05:59:07.578Z,99.90
2022-08-31T06:01:37.532Z,99.90
2022-08-31T06:04:05.531Z,99.90
2022-08-31T06:06:32.809Z,99.90
2022-08-31T06:08:59.669Z,99.90
2022-08-31T06:11:28.712Z,99.90
2022-08-31T06:13:58.255Z,99.90
2022-08-31T06:16:26.297Z,99.90
2022-08-31T06:18:55.635Z,99.90
2022-08-31T06:21:30.103Z,99.90
2022-08-31T06:23:58.111Z,99.90
2022-08-31T06:26:27.835Z,99.90
2022-08-31T06:28:57.237Z,99.90
2022-08-31T06:31:32.899Z,99.90
2022-08-31T06:34:01.534Z,99.90
2022-08-31T06:36:30.677Z,99.90
2022-08-31T06:38:59.368Z,99.90
2022-08-31T06:41:36.796Z,99.90
2022-08-31T06:44:06.355Z,99.90
2022-08-31T06:46:34.522Z,99.90
2022-08-31T06:49:01.842Z,99.90
2022-08-31T06:51:29.434Z,99.90
2022-08-31T06:54:04.363Z,99.90
2022-08-31T06:56:43.395Z,99.90
2022-08-31T06:59:10.864Z,99.90
2022-08-31T07:01:37.946Z,99.90
2022-08-31T07:04:09.040Z,99.90
2022-08-31T07:06:39.069Z,99.90
2022-08-31T07:09:08.537Z,99.90
2022-08-31T07:11:44.106Z,99.90
2022-08-31T07:14:15.124Z,99.90
2022-08-31T07:16:43.707Z,99.90
2022-08-31T07:19:12.854Z,99.90
2022-08-31T07:21:53.787Z,99.90
2022-08-31T07:24:27.865Z,99.90
2022-08-31T07:27:02.382Z,99.90
2022-08-31T07:29:37.654Z,99.90
2022-08-31T07:32:04.736Z,99.90
2022-08-31T07:34:50.760Z,99.90
2022-08-31T07:37:40.596Z,99.90
2022-08-31T07:40:26.678Z,99.90
2022-08-31T07:42:55.214Z,99.90
2022-08-31T07:45:25.925Z,99.90
2022-08-31T07:48:00.419Z,99.90
2022-08-31T07:50:27.468Z,99.90
2022-08-31T07:52:55.629Z,99.90
2022-08-31T07:55:24.333Z,99.90
2022-08-31T07:57:53.827Z,99.90
2022-08-31T08:00:29.617Z,99.90
2022-08-31T08:02:57.675Z,99.90
2022-08-31T08:05:29.047Z,99.90
2022-08-31T08:08:09.377Z,99.90
2022-08-31T08:10:43.722Z,99.90
2022-08-31T08:13:14.201Z,99.90
2022-08-31T08:15:41.044Z,99.90
2022-08-31T08:18:10.780Z,99.90
2022-08-31T08:20:39.047Z,99.90
2022-08-31T08:23:18.503Z,99.90
2022-08-31T08:25:54.652Z,99.90
2022-08-31T08:31:16.744Z,99.90
2022-08-31T08:33:44.854Z,99.90
2022-08-31T08:36:12.951Z,99.90
2022-08-31T08:38:43.945Z,99.90
2022-08-31T08:41:19.133Z,99.90
2022-08-31T08:43:57.410Z,99.90
2022-08-31T08:46:40.165Z,99.90
2022-08-31T08:49:15.456Z,99.90
2022-08-31T08:51:43.805Z,99.90
2022-08-31T08:54:14.390Z,99.90
2022-08-31T08:56:47.724Z,99.90
2022-08-31T08:59:19.521Z,99.90
2022-08-31T09:01:49.170Z,99.90
2022-08-31T09:04:19.170Z,99.90
2022-08-31T09:07:11.807Z,99.90
2022-08-31T09:09:50.577Z,99.90
2022-08-31T09:12:31.846Z,99.90
2022-08-31T09:15:36.625Z,99.90
2022-08-31T09:18:10.317Z,99.90
2022-08-31T09:20:37.520Z,99.90
2022-08-31T09:23:07.964Z,99.90
2022-08-31T09:25:46.220Z,99.90
2022-08-31T09:28:15.252Z,99.90
2022-08-31T09:30:45.228Z,99.90
2022-08-31T09:33:27.260Z,99.90
2022-08-31T09:36:13.738Z,99.90
2022-08-31T09:38:42.118Z,99.90
2022-08-31T09:41:29.673Z,99.90
2022-08-31T09:44:16.406Z,99.90
2022-08-31T09:46:53.442Z,99.90
2022-08-31T09:49:31.588Z,99.90
2022-08-31T09:52:42.692Z,99.90
2022-08-31T09:55:14.629Z,99.90
2022-08-31T09:57:55.908Z,99.90
2022-08-31T10:00:45.003Z,99.90
2022-08-31T10:03:28.856Z,99.90
2022-08-31T10:05:56.457Z,99.90
2022-08-31T10:08:58.044Z,99.90
2022-08-31T10:11:29.702Z,99.90
2022-08-31T10:14:04.533Z,99.90
2022-08-31T10:16:49.690Z,99.90
2022-08-31T10:19:30.332Z,99.90
2022-08-31T10:22:11.550Z,99.90
2022-08-31T10:24:51.166Z,99.90
2022-08-31T10:27:31.454Z,99.90
2022-08-31T10:30:20.966Z,99.90
2022-08-31T10:33:05.201Z,99.90
2022-08-31T10:35:44.819Z,99.90
2022-08-31T10:38:26.793Z,99.90
2022-08-31T10:41:17.867Z,99.90
2022-08-31T10:44:17.989Z,99.90
2022-08-31T10:46:45.434Z,99.90
2022-08-31T10:49:12.369Z,99.90
2022-08-31T10:52:06.248Z,99.90
2022-08-31T10:55:06.701Z,99.90
2022-08-31T10:57:58.550Z,99.90
2022-08-31T11:00:41.842Z,99.90
2022-08-31T11:03:33.067Z,99.90
2022-08-31T11:06:17.249Z,99.90
2022-08-31T11:09:22.354Z,99.90
2022-08-31T11:12:05.024Z,99.90
2022-08-31T11:15:22.370Z,99.90
2022-08-31T11:17:59.131Z,99.90
2022-08-31T11:20:41.042Z,99.90
2022-08-31T11:23:30.359Z,99.90
2022-08-31T11:26:31.881Z,99.90
2022-08-31T11:29:28.856Z,99.90
2022-08-31T11:32:00.953Z,99.90
2022-08-31T11:34:30.766Z,99.90
2022-08-31T11:37:01.121Z,99.90
2022-08-31T11:39:31.017Z,99.90
2022-08-31T11:41:59.107Z,99.90
2022-08-31T11:44:29.855Z,99.90
2022-08-31T11:47:25.817Z,99.90
2022-08-31T11:50:02.430Z,99.90
2022-08-31T11:52:48.371Z,99.90
2022-08-31T11:55:22.968Z,99.90
2022-08-31T11:58:08.948Z,99.90
2022-08-31T12:01:03.642Z,99.90
2022-08-31T12:04:28.874Z,99.90
2022-08-31T12:07:04.284Z,99.90
2022-08-31T12:10:01.795Z,99.90
2022-08-31T12:12:45.836Z,99.90
2022-08-31T12:15:40.699Z,99.90
2022-08-31T12:18:20.092Z,99.90
2022-08-31T12:21:23.359Z,99.90
2022-08-31T12:24:09.440Z,99.90
2022-08-31T12:27:15.631Z,99.90
2022-08-31T12:29:42.946Z,99.90
2022-08-31T12:32:31.250Z,99.90
2022-08-31T12:35:16.853Z,99.90
2022-08-31T12:37:44.216Z,99.90
2022-08-31T12:40:26.538Z,99.90
2022-08-31T12:43:26.292Z,99.90
2022-08-31T12:45:53.141Z,99.90
2022-08-31T12:48:32.673Z,99.90
2022-08-31T12:51:38.129Z,99.90
2022-08-31T12:54:29.660Z,99.90
2022-08-31T12:57:27.387Z,99.90
2022-08-31T13:00:13.320Z,99.90
2022-08-31T13:02:44.253Z,99.90
2022-08-31T13:05:20.663Z,99.90
2022-08-31T13:07:47.718Z,99.90
2022-08-31T13:10:34.606Z,99.90
2022-08-31T13:13:05.974Z,99.90
2022-08-31T13:15:40.119Z,99.90
2022-08-31T13:18:22.612Z,99.90
2022-08-31T13:20:56.245Z,99.90
2022-08-31T13:23:40.946Z,99.90
2022-08-31T13:26:19.928Z,99.90
2022-08-31T13:28:52.840Z,99.90
2022-08-31T13:31:26.311Z,99.90
2022-08-31T13:33:56.933Z,99.90
2022-08-31T13:36:33.220Z,99.90
2022-08-31T13:39:16.146Z,99.90
2022-08-31T13:42:10.232Z,99.90
2022-08-31T13:44:42.386Z,99.90
2022-08-31T13:47:31.961Z,99.90
2022-08-31T13:50:17.135Z,99.90
2022-08-31T13:53:25.342Z,99.90
2022-08-31T13:55:48.740Z,99.90
2022-08-31T13:58:29.143Z,99.90
2022-08-31T14:01:33.907Z,99.90
2022-08-31T14:04:00.825Z,99.90
2022-08-31T14:06:38.792Z,99.90
2022-08-31T14:09:17.358Z,99.90
2022-08-31T14:11:53.397Z,99.90
2022-08-31T14:14:40.245Z,99.90
2022-08-31T14:17:12.261Z,99.90
2022-08-31T14:19:39.210Z,99.90
2022-08-31T14:22:17.179Z,99.90
2022-08-31T14:24:44.138Z,99.90
2022-08-31T14:27:13.477Z,99.90
2022-08-31T14:29:41.992Z,99.90
2022-08-31T14:32:08.828Z,99.90
2022-08-31T14:34:36.434Z,99.90
2022-08-31T14:37:06.936Z,99.90
2022-08-31T14:39:35.365Z,99.90
2022-08-31T14:42:17.230Z,99.90
2022-08-31T14:44:56.648Z,99.90
2022-08-31T14:47:25.552Z,99.90
2022-08-31T14:49:52.448Z,99.90
2022-08-31T14:52:19.672Z,99.90
2022-08-31T14:54:47.668Z,99.90
2022-08-31T14:57:23.725Z,99.90
2022-08-31T14:59:57.680Z,99.90
2022-08-31T15:02:27.799Z,99.90
2022-08-31T15:04:59.679Z,99.90
2022-08-31T15:07:32.092Z,99.90
2022-08-31T15:09:59.461Z,99.90
2022-08-31T15:12:26.641Z,99.90
2022-08-31T15:15:00.019Z,99.90
2022-08-31T15:17:36.155Z,99.90
2022-08-31T15:20:05.929Z,99.90
2022-08-31T15:22:35.090Z,99.90
2022-08-31T15:25:02.201Z,99.90
2022-08-31T15:27:31.392Z,99.90
2022-08-31T15:30:08.040Z,99.90
2022-08-31T15:32:42.137Z,99.90
2022-08-31T15:35:10.306Z,99.90
2022-08-31T15:37:40.056Z,99.90
2022-08-31T15:40:10.059Z,99.90
2022-08-31T15:42:39.919Z,99.90
2022-08-31T15:45:07.812Z,99.90
2022-08-31T15:48:13.285Z,99.90
2022-08-31T15:50:48.164Z,99.90
2022-08-31T15:53:16.697Z,99.90
2022-08-31T15:55:44.863Z,99.90
2022-08-31T15:58:12.716Z,99.90
2022-08-31T16:00:41.813Z,99.90
2022-08-31T16:03:09.265Z,99.90
2022-08-31T16:05:39.672Z,99.90
2022-08-31T16:08:11.999Z,99.90
2022-08-31T16:10:48.772Z,99.90
2022-08-31T16:13:16.348Z,99.90
2022-08-31T16:15:51.378Z,99.90
2022-08-31T16:18:20.515Z,99.90
2022-08-31T16:20:50.055Z,99.90
2022-08-31T16:23:17.392Z,99.90
2022-08-31T16:25:48.483Z,99.90
2022-08-31T16:28:23.528Z,99.90
2022-08-31T16:30:57.283Z,99.90
2022-08-31T16:33:33.865Z,99.90
2022-08-31T16:36:26.012Z,99.90
2022-08-31T16:39:06.794Z,99.90
2022-08-31T16:41:43.860Z,99.90
2022-08-31T16:44:21.635Z,99.90
2022-08-31T16:46:59.484Z,99.90
2022-08-31T16:49:45.646Z,99.90
2022-08-31T16:52:32.510Z,99.90
2022-08-31T16:55:11.758Z,99.90
2022-08-31T16:57:47.566Z,99.90
2022-08-31T17:00:28.372Z,99.90
2022-08-31T17:03:00.038Z,99.70
2022-08-31T17:05:26.892Z,99.50
2022-08-31T17:07:54.125Z,99.90
2022-08-31T17:10:20.978Z,97.40
2022-08-31T17:12:48.384Z,96.30
2022-08-31T17:15:16.303Z,95.70
2022-08-31T17:17:48.084Z,95.50
2022-08-31T17:20:16.330Z,95.30
2022-08-31T17:22:48.517Z,96.50
2022-08-31T17:25:15.442Z,96.60
2022-08-31T17:27:42.553Z,96.90
2022-08-31T17:30:14.166Z,97.60
2022-08-31T17:32:45.223Z,97.30
2022-08-31T17:35:17.446Z,98.70
2022-08-31T17:37:44.299Z,98.70
2022-08-31T17:40:14.026Z,99.60
2022-08-31T17:42:42.084Z,99.90
2022-08-31T17:45:09.749Z,99.90
2022-08-31T17:47:36.633Z,99.90
2022-08-31T17:50:04.229Z,99.50
2022-08-31T17:52:31.557Z,98.80
2022-08-31T17:54:59.959Z,98.10
2022-08-31T17:57:27.961Z,97.30
2022-08-31T17:59:55.280Z,97.60
2022-08-31T18:02:32.425Z,97.40
2022-08-31T18:05:00.376Z,97.60
2022-08-31T18:07:27.845Z,98.10
2022-08-31T18:09:54.752Z,98.80
2022-08-31T18:12:22.765Z,98.60
2022-08-31T18:14:49.701Z,98.80
2022-08-31T18:17:17.242Z,98.90
2022-08-31T18:19:45.217Z,99.00
2022-08-31T18:22:15.575Z,99.20
2022-08-31T18:24:43.454Z,99.40
2022-08-31T18:27:15.263Z,99.90
2022-08-31T18:29:44.130Z,99.90
2022-08-31T18:32:11.392Z,99.90
2022-08-31T18:34:40.645Z,99.90
2022-08-31T18:37:09.837Z,99.90
2022-08-31T18:39:59.678Z,99.90
2022-08-31T18:42:50.047Z,99.90
2022-08-31T18:45:25.163Z,99.90
2022-08-31T18:48:23.941Z,99.90
2022-08-31T18:50:59.386Z,99.90
2022-08-31T18:53:35.927Z,99.90
2022-08-31T18:56:19.845Z,99.90
2022-08-31T18:59:03.635Z,99.90
2022-08-31T19:01:52.431Z,99.90
2022-08-31T19:04:26.992Z,99.90
2022-08-31T19:07:07.702Z,99.90
2022-08-31T19:09:39.450Z,99.90
2022-08-31T19:12:19.279Z,99.90
2022-08-31T19:14:55.311Z,99.90
2022-08-31T19:17:26.838Z,99.90
2022-08-31T19:19:54.334Z,99.90
2022-08-31T19:22:21.741Z,99.90
2022-08-31T19:24:49.715Z,99.90
2022-08-31T19:27:16.782Z,99.90
2022-08-31T19:29:46.183Z,99.90
2022-08-31T19:32:18.623Z,99.90
2022-08-31T19:34:48.049Z,99.90
2022-08-31T19:37:15.696Z,99.90
2022-08-31T19:39:46.694Z,99.90
2022-08-31T19:42:16.387Z,99.90
2022-08-31T19:44:55.690Z,99.90
2022-08-31T19:47:25.394Z,99.90
2022-08-31T19:49:52.868Z,99.90
2022-08-31T19:52:20.454Z,99.90
2022-08-31T19:54:48.532Z,99.90
2022-08-31T19:57:16.710Z,99.90
2022-08-31T19:59:43.823Z,99.90
2022-08-31T20:02:11.756Z,99.90
2022-08-31T20:04:39.173Z,99.90
2022-08-31T20:07:06.564Z,99.90
2022-08-31T20:09:34.639Z,99.90
2022-08-31T20:12:02.225Z,99.90
2022-08-31T20:14:29.284Z,99.90
2022-08-31T20:16:59.368Z,99.90
2022-08-31T20:19:28.157Z,99.90
2022-08-31T20:22:07.649Z,99.90
2022-08-31T20:24:38.088Z,99.90
2022-08-31T20:27:09.727Z,99.90
2022-08-31T20:29:39.874Z,99.90
2022-08-31T20:32:08.216Z,99.90
2022-08-31T20:34:37.291Z,99.90
2022-08-31T20:37:04.625Z,99.90
2022-08-31T20:39:32.581Z,99.90
2022-08-31T20:42:00.333Z,99.90
2022-08-31T20:44:31.136Z,99.90
2022-08-31T20:47:19.416Z,99.90
2022-08-31T20:49:53.702Z,99.90
2022-08-31T20:52:22.424Z,99.90
2022-08-31T20:55:01.230Z,99.90
2022-08-31T20:57:34.623Z,99.90
2022-08-31T21:00:05.381Z,99.90
2022-08-31T21:02:34.162Z,99.90
2022-08-31T21:05:26.823Z,99.90
2022-08-31T21:07:49.629Z,99.90
2022-08-31T21:10:16.656Z,99.90
2022-08-31T21:12:49.442Z,99.90
2022-08-31T21:15:22.382Z,99.90
2022-08-31T21:17:56.446Z,99.90
2022-08-31T21:20:24.274Z,99.90
2022-08-31T21:22:51.151Z,99.90
2022-08-31T21:25:18.422Z,99.90
2022-08-31T21:27:46.883Z,99.90
2022-08-31T21:30:13.934Z,99.90
2022-08-31T21:32:40.823Z,99.90
2022-08-31T21:35:12.161Z,99.90
2022-08-31T21:37:40.275Z,99.90
2022-08-31T21:40:08.118Z,99.90
2022-08-31T21:42:34.929Z,99.90
2022-08-31T21:45:01.762Z,99.90
2022-08-31T21:47:29.648Z,99.90
2022-08-31T21:49:56.407Z,99.90
2022-08-31T21:52:24.315Z,99.90
2022-08-31T21:54:51.772Z,99.90
2022-08-31T21:57:18.898Z,99.90
2022-08-31T21:59:45.746Z,99.90
2022-08-31T22:02:13.905Z,99.90
2022-08-31T22:04:43.480Z,99.90
2022-08-31T22:07:14.347Z,99.90
2022-08-31T22:09:42.738Z,99.90
2022-08-31T22:12:12.438Z,99.90
2022-08-31T22:14:41.305Z,99.90
2022-08-31T22:17:09.404Z,99.90
2022-08-31T22:19:39.266Z,99.90
2022-08-31T22:22:09.231Z,99.90
2022-08-31T22:24:40.234Z,99.90
2022-08-31T22:27:09.838Z,99.90
2022-08-31T22:29:38.260Z,99.90
2022-08-31T22:32:11.929Z,99.90
2022-08-31T22:34:39.599Z,99.90
2022-08-31T22:37:06.921Z,99.90
2022-08-31T22:39:33.788Z,99.90
2022-08-31T22:42:01.576Z,99.90
2022-08-31T22:44:32.366Z,99.90
2022-08-31T22:46:59.307Z,99.90
2022-08-31T22:49:27.080Z,99.90
2022-08-31T22:51:54.802Z,99.90
2022-08-31T22:54:23.016Z,99.90
2022-08-31T22:56:50.530Z,99.90
2022-08-31T22:59:27.152Z,99.90
2022-08-31T23:01:57.166Z,99.90
2022-08-31T23:04:27.636Z,99.90
2022-08-31T23:06:57.452Z,99.90
2022-08-31T23:09:27.735Z,99.90
2022-08-31T23:11:55.864Z,99.90
2022-08-31T23:14:23.151Z,99.90
2022-08-31T23:16:57.903Z,99.90
2022-08-31T23:19:30.558Z,99.90
2022-08-31T23:21:58.353Z,99.90
2022-08-31T23:24:41.378Z,99.90
2022-08-31T23:27:10.239Z,99.90
2022-08-31T23:29:40.683Z,99.90
2022-08-31T23:32:13.400Z,99.90
2022-08-31T23:34:41.679Z,99.90
2022-08-31T23:37:11.040Z,99.90
2022-08-31T23:39:43.642Z,99.90
2022-08-31T23:42:12.370Z,99.90
2022-08-31T23:44:43.871Z,99.90
2022-08-31T23:47:13.771Z,99.90
2022-08-31T23:49:42.261Z,99.90
2022-08-31T23:52:11.636Z,99.90
2022-08-31T23:54:39.194Z,99.90
2022-08-31T23:57:08.491Z,99.90
2022-08-31T23:59:52.947Z,99.90
